Fairfield, Tennessee
Current Conditions -  °F | °C
As of 12:53 PM on Thursday 30 Oct 2014 (Local Time) from KCSV Reporting Station
Clear Clear  
Wind Chill: 57°   Ceiling: Unl
Heat Index: 57°   Visibility: 10mi
Dew Point: 34°   Wind: 6mph
Humidity: 42%   Direction: 50°NE
Pressure: 30.08"   Gusts: NA
Location:  35.8867°N, 85.0211°W
Report Text: KCSV 301753Z AUTO 05005KT 10SM CLR 14/01 A3008 RMK AO2 SLP181 T01390011 10139 20022 58018
Loading
Personal Weather Stations






























Interactive Weather Map
Tropical Storm Tracking
New forecast layout! Learn more

10-Day Weather Forecast

Advertisements
Track Severe Weather on mobile